Terminal Aerodrome Forecast
Issued by NWS Cleveland, OH

Home | Current Version | Previous Version | Graphics & Text | Print | Product List | Glossary Off
Versions: 1 2 3 4 5 6 7 8 9 10 11 12 13 14 15 16 17 18 19 20 21 22 23 24 25 26 27 28

000
FTUS41 KCLE 030200 AAA
TAFCLE
TAF AMD
KCLE 030259Z 0303/0406 VRB03KT P6SM SCT250
      TEMPO 0310/0312 3SM BR
     FM031400 24003KT P6SM SCT035
     FM031900 36006KT P6SM SKC
     FM040100 VRB03KT P6SM SKC=

USA.gov is the U.S. government's official web portal to all federal, state and local government web resources and services.